createdAt,value
2022-08-07T00:02:57.251Z,66.52
2022-08-07T00:05:46.370Z,66.77
2022-08-07T00:08:36.417Z,66.54
2022-08-07T00:11:33.399Z,66.89
2022-08-07T00:14:14.848Z,66.78
2022-08-07T00:17:10.494Z,66.57
2022-08-07T00:20:03.300Z,66.64
2022-08-07T00:22:53.959Z,66.80
2022-08-07T00:25:42.561Z,66.79
2022-08-07T00:28:45.892Z,66.44
2022-08-07T00:31:44.401Z,66.58
2022-08-07T00:34:38.911Z,66.78
2022-08-07T00:37:29.423Z,66.47
2022-08-07T00:40:40.515Z,66.64
2022-08-07T00:44:01.151Z,66.38
2022-08-07T00:46:38.266Z,66.63
2022-08-07T00:50:20.812Z,66.79
2022-08-07T00:52:38.899Z,66.84
2022-08-07T00:56:02.765Z,66.65
2022-08-07T00:58:43.822Z,66.99
2022-08-07T01:01:44.543Z,66.53
2022-08-07T01:04:41.356Z,66.61
2022-08-07T01:07:32.376Z,66.48
2022-08-07T01:10:22.845Z,66.58
2022-08-07T01:13:11.513Z,66.50
2022-08-07T01:16:07.635Z,66.50
2022-08-07T01:18:56.739Z,66.56
2022-08-07T01:21:48.045Z,66.56
2022-08-07T01:24:37.935Z,66.56
2022-08-07T01:27:31.978Z,66.67
2022-08-07T01:30:20.128Z,66.75
2022-08-07T01:33:16.491Z,66.80
2022-08-07T01:36:11.448Z,66.89
2022-08-07T01:39:09.651Z,66.75
2022-08-07T01:42:37.910Z,66.64
2022-08-07T01:45:18.329Z,66.81
2022-08-07T01:48:21.162Z,66.63
2022-08-07T01:52:02.656Z,66.74
2022-08-07T01:54:36.849Z,66.92
2022-08-07T01:57:29.528Z,66.83
2022-08-07T02:00:28.930Z,66.92
2022-08-07T02:03:32.047Z,66.92
2022-08-07T02:06:33.495Z,66.82
2022-08-07T02:09:33.916Z,66.86
2022-08-07T02:12:41.379Z,66.96
2022-08-07T02:15:38.949Z,66.93
2022-08-07T02:18:30.773Z,67.08
2022-08-07T02:21:22.186Z,67.12
2022-08-07T02:24:12.822Z,67.31
2022-08-07T02:27:10.826Z,67.33
2022-08-07T02:30:07.150Z,67.33
2022-08-07T02:33:00.808Z,67.18
2022-08-07T02:36:29.071Z,67.20
2022-08-07T02:39:16.970Z,67.20
2022-08-07T02:42:21.574Z,67.26
2022-08-07T02:45:59.235Z,67.34
2022-08-07T02:48:22.639Z,67.43
2022-08-07T02:51:42.829Z,67.34
2022-08-07T02:54:26.623Z,67.38
2022-08-07T02:57:19.141Z,67.39
2022-08-07T03:00:15.406Z,67.43
2022-08-07T03:03:13.597Z,67.51
2022-08-07T03:06:03.262Z,67.65
2022-08-07T03:08:53.391Z,67.79
2022-08-07T03:11:52.605Z,67.72
2022-08-07T03:14:51.993Z,67.62
2022-08-07T03:17:52.933Z,67.67
2022-08-07T03:20:46.615Z,67.64
2022-08-07T03:23:34.067Z,67.68
2022-08-07T03:26:50.894Z,67.60
2022-08-07T03:29:51.024Z,67.73
2022-08-07T03:32:49.148Z,67.59
2022-08-07T03:35:50.448Z,67.63
2022-08-07T03:38:41.301Z,67.70
2022-08-07T03:41:42.359Z,67.67
2022-08-07T03:44:38.747Z,67.81
2022-08-07T03:47:29.551Z,67.85
2022-08-07T03:50:29.405Z,67.90
2022-08-07T03:53:18.148Z,67.86
2022-08-07T03:56:13.745Z,67.93
2022-08-07T03:59:08.868Z,67.95
2022-08-07T04:02:00.293Z,68.05
2022-08-07T04:04:45.220Z,68.14
2022-08-07T04:07:42.685Z,68.29
2022-08-07T04:10:35.250Z,68.19
2022-08-07T04:13:28.089Z,68.35
2022-08-07T04:16:38.064Z,68.71
2022-08-07T04:19:50.927Z,68.68
2022-08-07T04:22:53.585Z,68.67
2022-08-07T04:25:43.207Z,68.61
2022-08-07T04:28:32.382Z,68.53
2022-08-07T04:31:39.225Z,68.72
2022-08-07T04:34:39.399Z,68.93
2022-08-07T04:37:28.889Z,68.72
2022-08-07T04:40:17.608Z,68.69
2022-08-07T04:43:10.780Z,68.74
2022-08-07T04:46:12.470Z,68.81
2022-08-07T04:49:24.572Z,69.14
2022-08-07T04:52:26.501Z,68.99
2022-08-07T04:58:15.999Z,69.19
2022-08-07T04:59:18.288Z,69.27
2022-08-07T05:02:04.190Z,69.08
2022-08-07T05:05:00.759Z,69.21
2022-08-07T05:07:56.961Z,69.45
2022-08-07T05:10:51.221Z,69.17
2022-08-07T05:14:54.218Z,69.18
2022-08-07T05:17:11.980Z,69.20
2022-08-07T05:20:04.378Z,69.42
2022-08-07T05:23:03.959Z,69.83
2022-08-07T05:26:15.652Z,70.32
2022-08-07T05:29:08.043Z,70.38
2022-08-07T05:31:59.326Z,70.15
2022-08-07T05:34:49.713Z,69.55
2022-08-07T05:37:42.384Z,68.70
2022-08-07T05:40:32.167Z,68.46
2022-08-07T05:43:49.980Z,68.05
2022-08-07T05:46:34.099Z,67.89
2022-08-07T05:49:23.981Z,67.77
2022-08-07T05:52:12.777Z,66.55
2022-08-07T05:55:10.210Z,65.95
2022-08-07T05:58:01.679Z,65.10
2022-08-07T06:00:53.427Z,65.04
2022-08-07T06:03:56.849Z,65.07
2022-08-07T06:06:56.696Z,65.21
2022-08-07T06:10:04.177Z,65.12
2022-08-07T06:12:54.654Z,65.10
2022-08-07T06:15:44.247Z,65.20
2022-08-07T06:18:36.175Z,65.14
2022-08-07T06:22:14.460Z,65.30
2022-08-07T06:24:53.349Z,65.71
2022-08-07T06:28:01.117Z,65.53
2022-08-07T06:30:52.865Z,65.62
2022-08-07T06:33:42.454Z,65.49
2022-08-07T06:36:35.308Z,65.67
2022-08-07T06:40:12.913Z,66.04
2022-08-07T06:42:36.885Z,65.91
2022-08-07T06:45:44.822Z,65.62
2022-08-07T06:48:33.883Z,65.56
2022-08-07T06:51:33.190Z,65.67
2022-08-07T06:55:32.931Z,65.64
2022-08-07T06:57:39.867Z,65.55
2022-08-07T07:00:42.844Z,65.38
2022-08-07T07:03:47.951Z,65.58
2022-08-07T07:07:00.287Z,65.52
2022-08-07T07:09:51.654Z,65.51
2022-08-07T07:12:53.391Z,65.31
2022-08-07T07:15:51.416Z,65.09
2022-08-07T07:18:48.212Z,65.07
2022-08-07T07:22:04.633Z,64.97
2022-08-07T07:25:02.407Z,64.99
2022-08-07T07:28:42.537Z,64.83
2022-08-07T07:31:26.701Z,64.66
2022-08-07T07:34:30.876Z,64.89
2022-08-07T07:37:44.333Z,64.58
2022-08-07T07:40:33.423Z,64.68
2022-08-07T07:43:27.407Z,64.52
2022-08-07T07:46:54.229Z,64.59
2022-08-07T07:50:32.646Z,64.32
2022-08-07T07:52:57.730Z,64.28
2022-08-07T07:55:54.887Z,64.30
2022-08-07T07:58:48.667Z,64.19
2022-08-07T08:02:04.099Z,63.95
2022-08-07T08:04:55.335Z,64.13
2022-08-07T08:07:51.454Z,63.81
2022-08-07T08:10:49.089Z,63.79
2022-08-07T08:13:54.312Z,63.56
2022-08-07T08:16:50.310Z,63.66
2022-08-07T08:20:18.824Z,63.59
2022-08-07T08:23:11.400Z,63.56
2022-08-07T08:26:25.148Z,63.46
2022-08-07T08:29:18.572Z,63.40
2022-08-07T08:32:17.972Z,63.44
2022-08-07T08:35:12.096Z,63.22
2022-08-07T08:38:08.532Z,62.93
2022-08-07T08:41:02.888Z,63.14
2022-08-07T08:44:01.511Z,63.04
2022-08-07T08:47:00.572Z,62.80
2022-08-07T08:50:05.360Z,62.61
2022-08-07T08:53:03.106Z,62.42
2022-08-07T08:55:59.026Z,62.45
2022-08-07T08:58:50.597Z,62.58
2022-08-07T09:01:49.831Z,62.91
2022-08-07T09:04:44.431Z,62.83
2022-08-07T09:07:46.307Z,62.66
2022-08-07T09:10:55.574Z,62.31
2022-08-07T09:14:03.523Z,61.97
2022-08-07T09:16:59.893Z,62.02
2022-08-07T09:19:57.059Z,61.74
2022-08-07T09:24:30.376Z,61.65
2022-08-07T09:26:24.684Z,61.53
2022-08-07T09:30:06.615Z,60.95
2022-08-07T09:32:54.165Z,59.61
2022-08-07T09:36:04.797Z,59.22
2022-08-07T09:39:11.433Z,59.33
2022-08-07T09:42:33.548Z,59.60
2022-08-07T09:47:51.425Z,59.63
2022-08-07T09:49:59.502Z,59.10
2022-08-07T09:52:15.973Z,59.13
2022-08-07T09:55:29.318Z,59.16
2022-08-07T09:58:51.361Z,58.24
2022-08-07T10:02:05.006Z,57.94
2022-08-07T10:05:13.930Z,56.95
2022-08-07T10:08:15.916Z,57.01
2022-08-07T10:11:16.906Z,56.98
2022-08-07T10:14:22.951Z,57.08
2022-08-07T10:18:01.119Z,56.40
2022-08-07T10:21:20.010Z,56.09
2022-08-07T10:24:33.401Z,55.97
2022-08-07T10:28:02.490Z,55.25
2022-08-07T10:31:06.132Z,54.30
2022-08-07T10:34:17.909Z,54.36
2022-08-07T10:37:26.406Z,54.73
2022-08-07T10:40:40.178Z,54.41
2022-08-07T10:43:35.094Z,54.52
2022-08-07T10:46:29.573Z,53.41
2022-08-07T10:49:49.094Z,53.33
2022-08-07T10:52:51.156Z,53.87
2022-08-07T10:55:46.159Z,53.47
2022-08-07T10:58:59.933Z,53.45
2022-08-07T11:02:05.349Z,53.10
2022-08-07T11:05:14.305Z,52.46
2022-08-07T11:08:12.528Z,52.98
2022-08-07T11:11:13.882Z,53.16
2022-08-07T11:14:45.145Z,52.60
2022-08-07T11:17:43.512Z,52.72
2022-08-07T11:20:42.127Z,52.55
2022-08-07T11:23:50.865Z,52.35
2022-08-07T11:26:50.024Z,52.37
2022-08-07T11:29:48.370Z,52.55
2022-08-07T11:32:52.743Z,52.50
2022-08-07T11:35:59.626Z,51.47
2022-08-07T11:39:14.560Z,50.76
2022-08-07T11:42:19.040Z,50.54
2022-08-07T11:45:23.852Z,50.33
2022-08-07T11:49:27.667Z,50.45
2022-08-07T11:52:28.937Z,50.44
2022-08-07T11:56:09.620Z,50.54
2022-08-07T12:00:10.404Z,49.92
2022-08-07T12:02:33.320Z,49.64
2022-08-07T12:05:47.472Z,49.61
2022-08-07T12:08:42.537Z,49.15
2022-08-07T12:11:56.118Z,48.94
2022-08-07T12:15:00.104Z,48.61
2022-08-07T12:17:59.047Z,48.79
2022-08-07T12:21:01.725Z,49.38
2022-08-07T12:24:07.345Z,49.58
2022-08-07T12:27:13.281Z,49.26
2022-08-07T12:30:10.824Z,48.73
2022-08-07T12:33:09.401Z,48.48
2022-08-07T12:36:11.041Z,48.44
2022-08-07T12:39:01.225Z,48.34
2022-08-07T12:41:53.248Z,48.16
2022-08-07T12:44:45.645Z,48.07
2022-08-07T12:47:45.525Z,47.88
2022-08-07T12:50:48.838Z,47.71
2022-08-07T12:54:03.447Z,47.71
2022-08-07T12:56:59.181Z,47.27
2022-08-07T12:59:53.808Z,47.18
2022-08-07T13:03:00.665Z,47.01
2022-08-07T13:06:22.018Z,47.15
2022-08-07T13:10:19.470Z,47.34
2022-08-07T13:12:51.541Z,47.28
2022-08-07T13:15:50.926Z,47.39
2022-08-07T13:18:42.951Z,47.03
2022-08-07T13:21:54.951Z,46.81
2022-08-07T13:24:56.485Z,46.39
2022-08-07T13:28:12.371Z,46.45
2022-08-07T13:31:06.437Z,46.43
2022-08-07T13:34:33.768Z,46.63
2022-08-07T13:37:27.996Z,46.66
2022-08-07T13:40:35.529Z,46.46
2022-08-07T13:43:34.252Z,46.12
2022-08-07T13:46:32.901Z,46.18
2022-08-07T13:50:33.522Z,46.19
2022-08-07T13:52:40.842Z,45.92
2022-08-07T13:55:34.031Z,45.78
2022-08-07T13:58:54.219Z,45.46
2022-08-07T14:02:04.830Z,45.47
2022-08-07T14:05:00.255Z,45.72
2022-08-07T14:08:00.264Z,45.97
2022-08-07T14:11:01.969Z,46.36
2022-08-07T14:14:08.169Z,46.34
2022-08-07T14:16:59.731Z,46.37
2022-08-07T14:20:40.817Z,46.09
2022-08-07T14:23:59.498Z,46.05
2022-08-07T14:26:50.229Z,46.10
2022-08-07T14:30:05.354Z,46.11
2022-08-07T14:33:01.236Z,46.25
2022-08-07T14:35:47.372Z,46.35
2022-08-07T14:38:36.870Z,46.27
2022-08-07T14:41:34.203Z,46.12
2022-08-07T14:44:47.463Z,46.29
2022-08-07T14:47:44.716Z,46.08
2022-08-07T14:50:42.138Z,46.08
2022-08-07T14:54:08.779Z,46.00
2022-08-07T14:56:43.359Z,45.96
2022-08-07T15:02:47.172Z,45.82
2022-08-07T15:05:54.971Z,45.97
2022-08-07T15:08:54.763Z,46.16
2022-08-07T15:12:00.308Z,46.09
2022-08-07T15:14:57.731Z,46.21
2022-08-07T15:17:55.934Z,46.10
2022-08-07T15:20:55.265Z,46.15
2022-08-07T15:27:06.195Z,46.15
2022-08-07T15:30:08.844Z,46.00
2022-08-07T15:37:02.534Z,46.15
2022-08-07T15:39:26.665Z,46.20
2022-08-07T15:42:51.625Z,46.13
2022-08-07T15:45:57.577Z,46.06
2022-08-07T15:49:03.490Z,46.09
2022-08-07T15:52:03.146Z,46.13
2022-08-07T15:54:56.305Z,46.12
2022-08-07T15:57:54.294Z,46.25
2022-08-07T16:00:50.971Z,46.27
2022-08-07T16:03:47.052Z,46.38
2022-08-07T16:06:42.547Z,46.35
2022-08-07T16:09:48.848Z,46.37
2022-08-07T16:13:05.435Z,46.42
2022-08-07T16:16:48.166Z,46.45
2022-08-07T16:19:58.995Z,46.53
2022-08-07T16:23:11.791Z,46.53
2022-08-07T16:26:14.392Z,46.66
2022-08-07T16:30:09.702Z,46.66
2022-08-07T16:32:38.480Z,46.68
2022-08-07T16:35:56.925Z,46.74
2022-08-07T16:39:16.497Z,46.85
2022-08-07T16:42:29.695Z,46.84
2022-08-07T16:46:47.168Z,46.83
2022-08-07T16:50:28.932Z,46.82
2022-08-07T16:52:55.825Z,46.83
2022-08-07T16:55:53.320Z,46.93
2022-08-07T16:59:11.145Z,46.93
2022-08-07T17:02:53.412Z,46.91
2022-08-07T17:06:28.284Z,46.83
2022-08-07T17:10:07.007Z,46.79
2022-08-07T17:12:44.391Z,46.95
2022-08-07T17:15:50.929Z,46.90
2022-08-07T17:18:49.078Z,47.01
2022-08-07T17:21:50.728Z,47.14
2022-08-07T17:24:55.632Z,47.17
2022-08-07T17:27:53.960Z,47.31
2022-08-07T17:30:58.447Z,47.25
2022-08-07T17:34:15.313Z,47.39
2022-08-07T17:37:14.359Z,47.53
2022-08-07T17:40:30.549Z,47.64
2022-08-07T17:44:02.683Z,47.55
2022-08-07T17:46:47.423Z,47.77
2022-08-07T17:49:51.542Z,47.83
2022-08-07T17:52:47.212Z,47.96
2022-08-07T17:56:00.762Z,48.00
2022-08-07T17:58:57.373Z,48.03
2022-08-07T18:01:56.774Z,48.30
2022-08-07T18:04:55.746Z,48.34
2022-08-07T18:07:58.777Z,48.35
2022-08-07T18:12:06.651Z,48.60
2022-08-07T18:14:23.757Z,48.61
2022-08-07T18:18:46.072Z,48.92
2022-08-07T18:21:07.325Z,48.92
2022-08-07T18:24:07.368Z,49.00
2022-08-07T18:27:38.707Z,49.21
2022-08-07T18:30:38.354Z,49.35
2022-08-07T18:34:03.087Z,49.57
2022-08-07T18:37:09.641Z,49.67
2022-08-07T18:40:40.597Z,49.88
2022-08-07T18:43:43.465Z,50.09
2022-08-07T18:46:46.747Z,50.36
2022-08-07T18:50:33.053Z,50.46
2022-08-07T18:53:13.963Z,50.48
2022-08-07T18:56:16.394Z,50.72
2022-08-07T18:59:48.084Z,50.55
2022-08-07T19:02:42.682Z,50.95
2022-08-07T19:06:04.333Z,51.07
2022-08-07T19:09:09.535Z,51.06
2022-08-07T19:12:26.539Z,51.33
2022-08-07T19:16:02.500Z,51.57
2022-08-07T19:18:35.717Z,51.59
2022-08-07T19:21:47.884Z,51.53
2022-08-07T19:24:48.161Z,51.71
2022-08-07T19:28:30.838Z,52.04
2022-08-07T19:31:43.721Z,52.18
2022-08-07T19:34:11.416Z,52.12
2022-08-07T19:37:10.327Z,52.32
2022-08-07T19:40:02.418Z,52.61
2022-08-07T19:42:54.360Z,52.63
2022-08-07T19:46:04.846Z,52.67
2022-08-07T19:49:15.797Z,52.86
2022-08-07T19:52:05.881Z,52.73
2022-08-07T19:55:13.835Z,52.82
2022-08-07T19:58:13.446Z,53.03
2022-08-07T20:01:05.010Z,53.05
2022-08-07T20:04:02.295Z,53.33
2022-08-07T20:06:54.070Z,53.47
2022-08-07T20:10:36.213Z,53.49
2022-08-07T20:13:01.494Z,53.34
2022-08-07T20:15:58.133Z,53.54
2022-08-07T20:18:48.311Z,53.52
2022-08-07T20:21:46.754Z,53.63
2022-08-07T20:24:47.355Z,53.60
2022-08-07T20:27:48.172Z,53.84
2022-08-07T20:30:50.135Z,54.31
2022-08-07T20:33:41.799Z,54.16
2022-08-07T20:36:33.009Z,54.49
2022-08-07T20:40:03.625Z,54.34
2022-08-07T20:42:56.109Z,54.59
2022-08-07T20:46:27.060Z,54.65
2022-08-07T20:48:57.990Z,54.55
2022-08-07T20:51:51.055Z,54.92
2022-08-07T20:54:53.342Z,54.89
2022-08-07T20:58:02.283Z,54.99
2022-08-07T21:01:00.904Z,55.29
2022-08-07T21:04:19.876Z,55.42
2022-08-07T21:07:14.791Z,55.28
2022-08-07T21:10:14.701Z,55.60
2022-08-07T21:13:18.814Z,55.79
2022-08-07T21:16:14.878Z,55.81
2022-08-07T21:19:19.527Z,55.97
2022-08-07T21:22:14.779Z,55.76
2022-08-07T21:25:13.334Z,55.78
2022-08-07T21:28:47.636Z,56.07
2022-08-07T21:32:42.293Z,56.06
2022-08-07T21:34:57.225Z,56.30
2022-08-07T21:37:58.324Z,56.35
2022-08-07T21:40:59.110Z,56.40
2022-08-07T21:43:56.874Z,56.71
2022-08-07T21:46:52.790Z,56.67
2022-08-07T21:50:02.496Z,56.72
2022-08-07T21:53:07.772Z,56.85
2022-08-07T21:56:16.710Z,56.96
2022-08-07T22:00:03.126Z,56.97
2022-08-07T22:02:53.518Z,57.02
2022-08-07T22:05:49.727Z,57.04
2022-08-07T22:08:44.230Z,57.19
2022-08-07T22:12:05.665Z,57.26
2022-08-07T22:15:02.206Z,57.28
2022-08-07T22:17:59.764Z,57.36
2022-08-07T22:20:54.567Z,57.61
2022-08-07T22:23:52.649Z,57.62
2022-08-07T22:26:46.983Z,57.86
2022-08-07T22:29:49.791Z,57.88
2022-08-07T22:32:55.681Z,57.90
2022-08-07T22:35:54.483Z,57.99
2022-08-07T22:38:52.566Z,58.09
2022-08-07T22:42:03.599Z,58.23
2022-08-07T22:44:58.586Z,58.05
2022-08-07T22:48:54.886Z,58.26
2022-08-07T22:51:49.357Z,58.24
2022-08-07T22:55:22.376Z,58.54
2022-08-07T22:58:37.651Z,58.36
2022-08-07T23:01:51.227Z,58.56
2022-08-07T23:06:07.469Z,58.42
2022-08-07T23:08:30.195Z,58.62
2022-08-07T23:11:35.138Z,58.66
2022-08-07T23:14:48.461Z,58.79
2022-08-07T23:17:50.069Z,58.67
2022-08-07T23:20:58.907Z,58.87
2022-08-07T23:24:11.919Z,58.99
2022-08-07T23:27:33.844Z,59.00
2022-08-07T23:30:36.076Z,59.08
2022-08-07T23:34:34.700Z,59.23
2022-08-07T23:37:37.640Z,59.33
2022-08-07T23:48:28.942Z,59.38
2022-08-07T23:53:05.707Z,59.47
2022-08-07T23:54:46.421Z,59.68
2022-08-07T23:57:44.224Z,59.49
